sensor_id;sensor_type;location;lat;lon;timestamp;P1;durP1;ratioP1;P2;durP2;ratioP2
30147;SDS011;16960;49.404;8.248;2023-08-06T00:00:59;1.70;;;1.60;;
30147;SDS011;16960;49.404;8.248;2023-08-06T00:03:26;3.00;;;1.70;;
30147;SDS011;16960;49.404;8.248;2023-08-06T00:05:53;2.33;;;1.70;;
30147;SDS011;16960;49.404;8.248;2023-08-06T00:08:19;1.70;;;1.60;;
30147;SDS011;16960;49.404;8.248;2023-08-06T00:10:47;1.80;;;1.50;;
30147;SDS011;16960;49.404;8.248;2023-08-06T00:13:14;1.77;;;1.67;;
30147;SDS011;16960;49.404;8.248;2023-08-06T00:15:42;2.83;;;1.60;;
30147;SDS011;16960;49.404;8.248;2023-08-06T00:18:09;1.80;;;1.70;;
30147;SDS011;16960;49.404;8.248;2023-08-06T00:20:38;1.70;;;1.60;;
30147;SDS011;16960;49.404;8.248;2023-08-06T00:23:05;3.00;;;2.07;;
30147;SDS011;16960;49.404;8.248;2023-08-06T00:25:32;1.80;;;1.70;;
30147;SDS011;16960;49.404;8.248;2023-08-06T00:27:59;1.67;;;1.57;;
30147;SDS011;16960;49.404;8.248;2023-08-06T00:30:26;1.80;;;1.70;;
30147;SDS011;16960;49.404;8.248;2023-08-06T00:32:54;1.77;;;1.67;;
30147;SDS011;16960;49.404;8.248;2023-08-06T00:35:21;1.83;;;1.60;;
30147;SDS011;16960;49.404;8.248;2023-08-06T00:37:48;1.80;;;1.70;;
30147;SDS011;16960;49.404;8.248;2023-08-06T00:40:15;1.73;;;1.63;;
30147;SDS011;16960;49.404;8.248;2023-08-06T00:42:42;3.43;;;1.60;;
30147;SDS011;16960;49.404;8.248;2023-08-06T00:45:10;1.60;;;1.50;;
30147;SDS011;16960;49.404;8.248;2023-08-06T00:47:37;1.80;;;1.50;;
30147;SDS011;16960;49.404;8.248;2023-08-06T00:50:07;1.70;;;1.60;;
30147;SDS011;16960;49.404;8.248;2023-08-06T00:52:34;2.23;;;1.90;;
30147;SDS011;16960;49.404;8.248;2023-08-06T00:55:02;1.70;;;1.60;;
30147;SDS011;16960;49.404;8.248;2023-08-06T00:57:30;1.73;;;1.63;;
30147;SDS011;16960;49.404;8.248;2023-08-06T00:59:57;1.97;;;1.87;;
30147;SDS011;16960;49.404;8.248;2023-08-06T01:02:24;1.60;;;1.50;;
30147;SDS011;16960;49.404;8.248;2023-08-06T01:04:51;2.40;;;2.20;;
30147;SDS011;16960;49.404;8.248;2023-08-06T01:07:21;1.50;;;1.40;;
30147;SDS011;16960;49.404;8.248;2023-08-06T01:10:01;1.60;;;1.40;;
30147;SDS011;16960;49.404;8.248;2023-08-06T01:12:44;3.17;;;1.70;;
30147;SDS011;16960;49.404;8.248;2023-08-06T01:15:17;2.30;;;1.60;;
30147;SDS011;16960;49.404;8.248;2023-08-06T01:17:48;1.90;;;1.50;;
30147;SDS011;16960;49.404;8.248;2023-08-06T01:20:15;1.50;;;1.40;;
30147;SDS011;16960;49.404;8.248;2023-08-06T01:22:44;1.80;;;1.67;;
30147;SDS011;16960;49.404;8.248;2023-08-06T01:25:11;2.33;;;1.97;;
30147;SDS011;16960;49.404;8.248;2023-08-06T01:27:43;1.60;;;1.50;;
30147;SDS011;16960;49.404;8.248;2023-08-06T01:30:15;1.97;;;1.63;;
30147;SDS011;16960;49.404;8.248;2023-08-06T01:32:48;1.73;;;1.63;;
30147;SDS011;16960;49.404;8.248;2023-08-06T01:35:18;2.00;;;1.80;;
30147;SDS011;16960;49.404;8.248;2023-08-06T01:37:48;1.53;;;1.43;;
30147;SDS011;16960;49.404;8.248;2023-08-06T01:40:16;2.47;;;2.27;;
30147;SDS011;16960;49.404;8.248;2023-08-06T01:42:43;1.97;;;1.77;;
30147;SDS011;16960;49.404;8.248;2023-08-06T01:45:10;1.73;;;1.63;;
30147;SDS011;16960;49.404;8.248;2023-08-06T01:47:37;1.40;;;1.30;;
30147;SDS011;16960;49.404;8.248;2023-08-06T01:50:04;2.00;;;1.80;;
30147;SDS011;16960;49.404;8.248;2023-08-06T01:52:31;1.63;;;1.50;;
30147;SDS011;16960;49.404;8.248;2023-08-06T01:55:00;1.60;;;1.50;;
30147;SDS011;16960;49.404;8.248;2023-08-06T01:57:27;1.97;;;1.83;;
30147;SDS011;16960;49.404;8.248;2023-08-06T01:59:54;2.20;;;1.90;;
30147;SDS011;16960;49.404;8.248;2023-08-06T02:02:24;1.77;;;1.67;;
30147;SDS011;16960;49.404;8.248;2023-08-06T02:04:52;1.57;;;1.47;;
30147;SDS011;16960;49.404;8.248;2023-08-06T02:07:18;1.60;;;1.50;;
30147;SDS011;16960;49.404;8.248;2023-08-06T02:09:45;1.47;;;1.37;;
30147;SDS011;16960;49.404;8.248;2023-08-06T02:12:13;1.70;;;1.60;;
30147;SDS011;16960;49.404;8.248;2023-08-06T02:14:40;1.30;;;1.20;;
30147;SDS011;16960;49.404;8.248;2023-08-06T02:17:07;1.60;;;1.50;;
30147;SDS011;16960;49.404;8.248;2023-08-06T02:19:34;1.63;;;1.53;;
30147;SDS011;16960;49.404;8.248;2023-08-06T02:22:01;1.80;;;1.70;;
30147;SDS011;16960;49.404;8.248;2023-08-06T02:24:28;2.10;;;1.80;;
30147;SDS011;16960;49.404;8.248;2023-08-06T02:26:55;2.70;;;1.73;;
30147;SDS011;16960;49.404;8.248;2023-08-06T02:29:23;1.80;;;1.63;;
30147;SDS011;16960;49.404;8.248;2023-08-06T02:31:50;1.50;;;1.40;;
30147;SDS011;16960;49.404;8.248;2023-08-06T02:34:17;1.70;;;1.40;;
30147;SDS011;16960;49.404;8.248;2023-08-06T02:36:44;1.57;;;1.47;;
30147;SDS011;16960;49.404;8.248;2023-08-06T02:39:11;1.63;;;1.53;;
30147;SDS011;16960;49.404;8.248;2023-08-06T02:41:38;1.73;;;1.50;;
30147;SDS011;16960;49.404;8.248;2023-08-06T02:44:05;1.57;;;1.47;;
30147;SDS011;16960;49.404;8.248;2023-08-06T02:46:33;1.80;;;1.60;;
30147;SDS011;16960;49.404;8.248;2023-08-06T02:49:00;1.53;;;1.37;;
30147;SDS011;16960;49.404;8.248;2023-08-06T02:51:27;1.93;;;1.77;;
30147;SDS011;16960;49.404;8.248;2023-08-06T02:53:53;1.70;;;1.60;;
30147;SDS011;16960;49.404;8.248;2023-08-06T02:56:20;2.30;;;1.57;;
30147;SDS011;16960;49.404;8.248;2023-08-06T02:58:47;1.40;;;1.30;;
30147;SDS011;16960;49.404;8.248;2023-08-06T03:01:14;1.47;;;1.37;;
30147;SDS011;16960;49.404;8.248;2023-08-06T03:03:43;1.60;;;1.50;;
30147;SDS011;16960;49.404;8.248;2023-08-06T03:06:10;1.70;;;1.57;;
30147;SDS011;16960;49.404;8.248;2023-08-06T03:08:36;1.37;;;1.27;;
30147;SDS011;16960;49.404;8.248;2023-08-06T03:11:03;2.10;;;1.50;;
30147;SDS011;16960;49.404;8.248;2023-08-06T03:13:30;1.47;;;1.37;;
30147;SDS011;16960;49.404;8.248;2023-08-06T03:15:58;2.20;;;1.60;;
30147;SDS011;16960;49.404;8.248;2023-08-06T03:18:25;1.20;;;1.10;;
30147;SDS011;16960;49.404;8.248;2023-08-06T03:20:54;2.10;;;1.53;;
30147;SDS011;16960;49.404;8.248;2023-08-06T03:23:22;2.83;;;1.57;;
30147;SDS011;16960;49.404;8.248;2023-08-06T03:25:48;1.60;;;1.50;;
30147;SDS011;16960;49.404;8.248;2023-08-06T03:28:15;1.40;;;1.30;;
30147;SDS011;16960;49.404;8.248;2023-08-06T03:30:42;1.50;;;1.40;;
30147;SDS011;16960;49.404;8.248;2023-08-06T03:33:09;1.10;;;1.00;;
30147;SDS011;16960;49.404;8.248;2023-08-06T03:35:36;1.70;;;1.47;;
30147;SDS011;16960;49.404;8.248;2023-08-06T03:38:04;1.40;;;1.30;;
30147;SDS011;16960;49.404;8.248;2023-08-06T03:40:31;1.43;;;1.33;;
30147;SDS011;16960;49.404;8.248;2023-08-06T03:43:00;4.03;;;1.53;;
30147;SDS011;16960;49.404;8.248;2023-08-06T03:45:27;1.00;;;0.90;;
30147;SDS011;16960;49.404;8.248;2023-08-06T03:47:54;1.40;;;1.30;;
30147;SDS011;16960;49.404;8.248;2023-08-06T03:50:21;1.70;;;1.30;;
30147;SDS011;16960;49.404;8.248;2023-08-06T03:52:48;1.57;;;1.47;;
30147;SDS011;16960;49.404;8.248;2023-08-06T03:55:17;1.57;;;1.30;;
30147;SDS011;16960;49.404;8.248;2023-08-06T03:57:44;1.50;;;1.40;;
30147;SDS011;16960;49.404;8.248;2023-08-06T04:00:11;2.83;;;1.97;;
30147;SDS011;16960;49.404;8.248;2023-08-06T04:02:38;1.43;;;1.20;;
30147;SDS011;16960;49.404;8.248;2023-08-06T04:05:05;1.40;;;1.30;;
30147;SDS011;16960;49.404;8.248;2023-08-06T04:07:33;1.80;;;1.33;;
30147;SDS011;16960;49.404;8.248;2023-08-06T04:10:00;1.77;;;1.37;;
30147;SDS011;16960;49.404;8.248;2023-08-06T04:12:29;1.10;;;1.00;;
30147;SDS011;16960;49.404;8.248;2023-08-06T04:14:58;1.13;;;0.97;;
30147;SDS011;16960;49.404;8.248;2023-08-06T04:17:25;1.13;;;1.00;;
30147;SDS011;16960;49.404;8.248;2023-08-06T04:19:52;1.37;;;1.27;;
30147;SDS011;16960;49.404;8.248;2023-08-06T04:22:23;1.50;;;1.40;;
30147;SDS011;16960;49.404;8.248;2023-08-06T04:24:50;1.23;;;1.13;;
30147;SDS011;16960;49.404;8.248;2023-08-06T04:27:18;1.00;;;0.90;;
30147;SDS011;16960;49.404;8.248;2023-08-06T04:29:47;1.23;;;1.13;;
30147;SDS011;16960;49.404;8.248;2023-08-06T04:32:14;1.17;;;1.07;;
30147;SDS011;16960;49.404;8.248;2023-08-06T04:34:41;2.00;;;1.30;;
30147;SDS011;16960;49.404;8.248;2023-08-06T04:37:08;1.60;;;1.47;;
30147;SDS011;16960;49.404;8.248;2023-08-06T04:39:35;1.43;;;1.10;;
30147;SDS011;16960;49.404;8.248;2023-08-06T04:42:02;1.20;;;1.10;;
30147;SDS011;16960;49.404;8.248;2023-08-06T04:44:29;4.60;;;1.40;;
30147;SDS011;16960;49.404;8.248;2023-08-06T04:46:57;2.00;;;1.20;;
30147;SDS011;16960;49.404;8.248;2023-08-06T04:49:24;1.30;;;1.20;;
30147;SDS011;16960;49.404;8.248;2023-08-06T04:51:51;1.30;;;1.20;;
30147;SDS011;16960;49.404;8.248;2023-08-06T04:54:18;1.00;;;0.90;;
30147;SDS011;16960;49.404;8.248;2023-08-06T04:56:45;1.20;;;1.10;;
30147;SDS011;16960;49.404;8.248;2023-08-06T04:59:12;2.27;;;1.30;;
30147;SDS011;16960;49.404;8.248;2023-08-06T05:01:39;2.93;;;1.10;;
30147;SDS011;16960;49.404;8.248;2023-08-06T05:04:07;1.40;;;1.30;;
30147;SDS011;16960;49.404;8.248;2023-08-06T05:06:34;1.10;;;1.00;;
30147;SDS011;16960;49.404;8.248;2023-08-06T05:09:03;1.30;;;1.20;;
30147;SDS011;16960;49.404;8.248;2023-08-06T05:11:30;1.20;;;1.00;;
30147;SDS011;16960;49.404;8.248;2023-08-06T05:13:57;1.40;;;1.00;;
30147;SDS011;16960;49.404;8.248;2023-08-06T05:16:23;1.00;;;0.90;;
30147;SDS011;16960;49.404;8.248;2023-08-06T05:18:50;1.20;;;1.10;;
30147;SDS011;16960;49.404;8.248;2023-08-06T05:21:19;1.13;;;0.90;;
30147;SDS011;16960;49.404;8.248;2023-08-06T05:23:45;1.13;;;0.90;;
30147;SDS011;16960;49.404;8.248;2023-08-06T05:26:12;1.60;;;1.20;;
30147;SDS011;16960;49.404;8.248;2023-08-06T05:28:40;1.37;;;1.13;;
30147;SDS011;16960;49.404;8.248;2023-08-06T05:31:07;1.37;;;1.00;;
30147;SDS011;16960;49.404;8.248;2023-08-06T05:33:34;2.47;;;1.23;;
30147;SDS011;16960;49.404;8.248;2023-08-06T05:36:01;1.30;;;1.20;;
30147;SDS011;16960;49.404;8.248;2023-08-06T05:38:30;0.87;;;0.87;;
30147;SDS011;16960;49.404;8.248;2023-08-06T05:40:57;1.20;;;1.10;;
30147;SDS011;16960;49.404;8.248;2023-08-06T05:43:24;0.90;;;0.80;;
30147;SDS011;16960;49.404;8.248;2023-08-06T05:45:51;0.97;;;0.87;;
30147;SDS011;16960;49.404;8.248;2023-08-06T05:48:18;0.80;;;0.60;;
30147;SDS011;16960;49.404;8.248;2023-08-06T05:50:44;1.33;;;0.97;;
30147;SDS011;16960;49.404;8.248;2023-08-06T05:53:11;1.50;;;0.70;;
30147;SDS011;16960;49.404;8.248;2023-08-06T05:55:40;0.90;;;0.80;;
30147;SDS011;16960;49.404;8.248;2023-08-06T05:58:06;1.07;;;0.80;;
30147;SDS011;16960;49.404;8.248;2023-08-06T06:00:33;1.03;;;0.90;;
30147;SDS011;16960;49.404;8.248;2023-08-06T06:03:01;1.73;;;0.90;;
30147;SDS011;16960;49.404;8.248;2023-08-06T06:05:28;0.70;;;0.60;;
30147;SDS011;16960;49.404;8.248;2023-08-06T06:07:55;1.20;;;0.90;;
30147;SDS011;16960;49.404;8.248;2023-08-06T06:10:22;0.83;;;0.83;;
30147;SDS011;16960;49.404;8.248;2023-08-06T06:12:50;0.90;;;0.60;;
30147;SDS011;16960;49.404;8.248;2023-08-06T06:15:17;0.83;;;0.80;;
30147;SDS011;16960;49.404;8.248;2023-08-06T06:17:44;0.80;;;0.80;;
30147;SDS011;16960;49.404;8.248;2023-08-06T06:20:11;0.80;;;0.70;;
30147;SDS011;16960;49.404;8.248;2023-08-06T06:22:38;1.00;;;0.80;;
30147;SDS011;16960;49.404;8.248;2023-08-06T06:25:05;4.30;;;0.90;;
30147;SDS011;16960;49.404;8.248;2023-08-06T06:27:32;0.87;;;0.77;;
30147;SDS011;16960;49.404;8.248;2023-08-06T06:30:01;0.90;;;0.77;;
30147;SDS011;16960;49.404;8.248;2023-08-06T06:32:29;1.10;;;0.80;;
30147;SDS011;16960;49.404;8.248;2023-08-06T06:34:56;1.47;;;0.90;;
30147;SDS011;16960;49.404;8.248;2023-08-06T06:37:23;0.70;;;0.50;;
30147;SDS011;16960;49.404;8.248;2023-08-06T06:39:50;0.73;;;0.63;;
30147;SDS011;16960;49.404;8.248;2023-08-06T06:42:17;0.90;;;0.77;;
30147;SDS011;16960;49.404;8.248;2023-08-06T06:44:44;0.60;;;0.50;;
30147;SDS011;16960;49.404;8.248;2023-08-06T06:47:12;0.70;;;0.60;;
30147;SDS011;16960;49.404;8.248;2023-08-06T06:49:39;1.40;;;0.50;;
30147;SDS011;16960;49.404;8.248;2023-08-06T06:52:06;0.77;;;0.50;;
30147;SDS011;16960;49.404;8.248;2023-08-06T06:54:33;1.37;;;0.60;;
30147;SDS011;16960;49.404;8.248;2023-08-06T06:57:00;0.63;;;0.50;;
30147;SDS011;16960;49.404;8.248;2023-08-06T06:59:27;1.00;;;0.40;;
30147;SDS011;16960;49.404;8.248;2023-08-06T07:01:54;0.70;;;0.40;;
30147;SDS011;16960;49.404;8.248;2023-08-06T07:04:22;0.90;;;0.67;;
30147;SDS011;16960;49.404;8.248;2023-08-06T07:06:49;0.60;;;0.40;;
30147;SDS011;16960;49.404;8.248;2023-08-06T07:09:17;1.73;;;0.50;;
30147;SDS011;16960;49.404;8.248;2023-08-06T07:11:44;2.50;;;0.70;;
30147;SDS011;16960;49.404;8.248;2023-08-06T07:14:10;3.20;;;0.50;;
30147;SDS011;16960;49.404;8.248;2023-08-06T07:16:39;1.57;;;0.47;;
30147;SDS011;16960;49.404;8.248;2023-08-06T07:19:06;0.97;;;0.50;;
30147;SDS011;16960;49.404;8.248;2023-08-06T07:21:34;3.90;;;0.40;;
30147;SDS011;16960;49.404;8.248;2023-08-06T07:24:01;2.53;;;0.50;;
30147;SDS011;16960;49.404;8.248;2023-08-06T07:26:29;0.60;;;0.33;;
30147;SDS011;16960;49.404;8.248;2023-08-06T07:28:55;1.37;;;0.40;;
30147;SDS011;16960;49.404;8.248;2023-08-06T07:31:22;0.50;;;0.40;;
30147;SDS011;16960;49.404;8.248;2023-08-06T07:33:49;1.53;;;0.40;;
30147;SDS011;16960;49.404;8.248;2023-08-06T07:36:16;0.67;;;0.50;;
30147;SDS011;16960;49.404;8.248;2023-08-06T07:38:44;1.40;;;0.80;;
30147;SDS011;16960;49.404;8.248;2023-08-06T07:41:13;0.50;;;0.30;;
30147;SDS011;16960;49.404;8.248;2023-08-06T07:43:40;0.47;;;0.30;;
30147;SDS011;16960;49.404;8.248;2023-08-06T07:46:07;0.70;;;0.40;;
30147;SDS011;16960;49.404;8.248;2023-08-06T07:48:34;0.90;;;0.20;;
30147;SDS011;16960;49.404;8.248;2023-08-06T07:51:01;0.60;;;0.40;;
30147;SDS011;16960;49.404;8.248;2023-08-06T07:53:28;0.83;;;0.40;;
30147;SDS011;16960;49.404;8.248;2023-08-06T07:55:57;1.27;;;0.40;;
30147;SDS011;16960;49.404;8.248;2023-08-06T07:58:25;0.97;;;0.70;;
30147;SDS011;16960;49.404;8.248;2023-08-06T08:00:52;0.50;;;0.40;;
30147;SDS011;16960;49.404;8.248;2023-08-06T08:03:19;0.33;;;0.30;;
30147;SDS011;16960;49.404;8.248;2023-08-06T08:05:46;0.90;;;0.40;;
30147;SDS011;16960;49.404;8.248;2023-08-06T08:08:13;1.37;;;0.40;;
30147;SDS011;16960;49.404;8.248;2023-08-06T08:10:40;0.83;;;0.30;;
30147;SDS011;16960;49.404;8.248;2023-08-06T08:13:09;0.83;;;0.30;;
30147;SDS011;16960;49.404;8.248;2023-08-06T08:15:36;0.60;;;0.40;;
30147;SDS011;16960;49.404;8.248;2023-08-06T08:18:03;0.30;;;0.20;;
30147;SDS011;16960;49.404;8.248;2023-08-06T08:20:30;0.70;;;0.40;;
30147;SDS011;16960;49.404;8.248;2023-08-06T08:22:58;0.50;;;0.30;;
30147;SDS011;16960;49.404;8.248;2023-08-06T08:25:26;1.07;;;0.30;;
30147;SDS011;16960;49.404;8.248;2023-08-06T08:27:53;0.67;;;0.40;;
30147;SDS011;16960;49.404;8.248;2023-08-06T08:30:21;0.63;;;0.33;;
30147;SDS011;16960;49.404;8.248;2023-08-06T08:32:50;0.30;;;0.20;;
30147;SDS011;16960;49.404;8.248;2023-08-06T08:35:17;0.70;;;0.50;;
30147;SDS011;16960;49.404;8.248;2023-08-06T08:37:44;1.47;;;0.30;;
30147;SDS011;16960;49.404;8.248;2023-08-06T08:40:11;0.40;;;0.20;;
30147;SDS011;16960;49.404;8.248;2023-08-06T08:42:38;0.43;;;0.40;;
30147;SDS011;16960;49.404;8.248;2023-08-06T08:45:06;0.60;;;0.30;;
30147;SDS011;16960;49.404;8.248;2023-08-06T08:47:40;0.40;;;0.20;;
30147;SDS011;16960;49.404;8.248;2023-08-06T08:50:08;0.40;;;0.20;;
30147;SDS011;16960;49.404;8.248;2023-08-06T08:52:36;0.50;;;0.20;;
30147;SDS011;16960;49.404;8.248;2023-08-06T08:55:06;0.37;;;0.20;;
30147;SDS011;16960;49.404;8.248;2023-08-06T08:57:34;0.93;;;0.40;;
30147;SDS011;16960;49.404;8.248;2023-08-06T09:00:01;0.73;;;0.30;;
30147;SDS011;16960;49.404;8.248;2023-08-06T09:02:29;1.13;;;0.30;;
30147;SDS011;16960;49.404;8.248;2023-08-06T09:05:00;0.50;;;0.30;;
30147;SDS011;16960;49.404;8.248;2023-08-06T09:07:29;0.40;;;0.30;;
30147;SDS011;16960;49.404;8.248;2023-08-06T09:10:01;0.30;;;0.23;;
30147;SDS011;16960;49.404;8.248;2023-08-06T09:12:30;0.40;;;0.30;;
30147;SDS011;16960;49.404;8.248;2023-08-06T09:14:58;0.30;;;0.20;;
30147;SDS011;16960;49.404;8.248;2023-08-06T09:17:25;0.60;;;0.40;;
30147;SDS011;16960;49.404;8.248;2023-08-06T09:19:53;0.50;;;0.20;;
30147;SDS011;16960;49.404;8.248;2023-08-06T09:22:21;0.40;;;0.23;;
30147;SDS011;16960;49.404;8.248;2023-08-06T09:24:49;0.47;;;0.30;;
30147;SDS011;16960;49.404;8.248;2023-08-06T09:27:16;1.40;;;0.47;;
30147;SDS011;16960;49.404;8.248;2023-08-06T09:29:44;0.40;;;0.20;;
30147;SDS011;16960;49.404;8.248;2023-08-06T09:32:11;0.30;;;0.20;;
30147;SDS011;16960;49.404;8.248;2023-08-06T09:34:39;0.63;;;0.30;;
30147;SDS011;16960;49.404;8.248;2023-08-06T09:37:09;0.50;;;0.30;;
30147;SDS011;16960;49.404;8.248;2023-08-06T09:39:38;0.37;;;0.20;;
30147;SDS011;16960;49.404;8.248;2023-08-06T09:42:06;0.40;;;0.20;;
30147;SDS011;16960;49.404;8.248;2023-08-06T09:44:33;0.50;;;0.23;;
30147;SDS011;16960;49.404;8.248;2023-08-06T09:47:01;0.67;;;0.37;;
30147;SDS011;16960;49.404;8.248;2023-08-06T09:49:39;0.40;;;0.20;;
30147;SDS011;16960;49.404;8.248;2023-08-06T09:52:08;1.03;;;0.20;;
30147;SDS011;16960;49.404;8.248;2023-08-06T09:54:38;0.60;;;0.30;;
30147;SDS011;16960;49.404;8.248;2023-08-06T09:57:05;0.30;;;0.20;;
30147;SDS011;16960;49.404;8.248;2023-08-06T09:59:33;0.40;;;0.40;;
30147;SDS011;16960;49.404;8.248;2023-08-06T10:02:00;0.50;;;0.30;;
30147;SDS011;16960;49.404;8.248;2023-08-06T10:04:33;0.50;;;0.27;;
30147;SDS011;16960;49.404;8.248;2023-08-06T10:07:00;0.40;;;0.27;;
30147;SDS011;16960;49.404;8.248;2023-08-06T10:09:28;1.00;;;0.30;;
30147;SDS011;16960;49.404;8.248;2023-08-06T10:11:56;0.70;;;0.30;;
30147;SDS011;16960;49.404;8.248;2023-08-06T10:14:26;0.30;;;0.27;;
30147;SDS011;16960;49.404;8.248;2023-08-06T10:16:58;0.30;;;0.20;;
30147;SDS011;16960;49.404;8.248;2023-08-06T10:19:25;0.30;;;0.20;;
30147;SDS011;16960;49.404;8.248;2023-08-06T10:22:09;0.40;;;0.30;;
30147;SDS011;16960;49.404;8.248;2023-08-06T10:24:47;1.13;;;0.40;;
30147;SDS011;16960;49.404;8.248;2023-08-06T10:27:20;0.70;;;0.30;;
30147;SDS011;16960;49.404;8.248;2023-08-06T10:29:48;0.70;;;0.30;;
30147;SDS011;16960;49.404;8.248;2023-08-06T10:32:15;1.10;;;0.50;;
30147;SDS011;16960;49.404;8.248;2023-08-06T10:34:59;0.40;;;0.30;;
30147;SDS011;16960;49.404;8.248;2023-08-06T10:37:34;0.57;;;0.40;;
30147;SDS011;16960;49.404;8.248;2023-08-06T10:40:02;0.50;;;0.30;;
30147;SDS011;16960;49.404;8.248;2023-08-06T10:42:33;0.40;;;0.20;;
30147;SDS011;16960;49.404;8.248;2023-08-06T10:45:16;0.50;;;0.40;;
30147;SDS011;16960;49.404;8.248;2023-08-06T10:47:44;0.50;;;0.40;;
30147;SDS011;16960;49.404;8.248;2023-08-06T10:50:11;0.60;;;0.37;;
30147;SDS011;16960;49.404;8.248;2023-08-06T10:52:41;0.40;;;0.20;;
30147;SDS011;16960;49.404;8.248;2023-08-06T10:55:08;0.50;;;0.20;;
30147;SDS011;16960;49.404;8.248;2023-08-06T10:57:37;0.60;;;0.20;;
30147;SDS011;16960;49.404;8.248;2023-08-06T11:00:04;0.50;;;0.30;;
30147;SDS011;16960;49.404;8.248;2023-08-06T11:02:33;0.30;;;0.20;;
30147;SDS011;16960;49.404;8.248;2023-08-06T11:05:04;0.60;;;0.40;;
30147;SDS011;16960;49.404;8.248;2023-08-06T11:07:32;0.70;;;0.27;;
30147;SDS011;16960;49.404;8.248;2023-08-06T11:10:03;2.50;;;0.37;;
30147;SDS011;16960;49.404;8.248;2023-08-06T11:12:30;0.50;;;0.20;;
30147;SDS011;16960;49.404;8.248;2023-08-06T11:14:59;0.33;;;0.23;;
30147;SDS011;16960;49.404;8.248;2023-08-06T11:17:27;0.47;;;0.37;;
30147;SDS011;16960;49.404;8.248;2023-08-06T11:19:55;0.30;;;0.20;;
30147;SDS011;16960;49.404;8.248;2023-08-06T11:22:22;0.40;;;0.30;;
30147;SDS011;16960;49.404;8.248;2023-08-06T11:24:49;0.53;;;0.40;;
30147;SDS011;16960;49.404;8.248;2023-08-06T11:27:16;0.93;;;0.40;;
30147;SDS011;16960;49.404;8.248;2023-08-06T11:29:44;0.80;;;0.50;;
30147;SDS011;16960;49.404;8.248;2023-08-06T11:32:12;1.07;;;0.43;;
30147;SDS011;16960;49.404;8.248;2023-08-06T11:34:39;1.60;;;0.40;;
30147;SDS011;16960;49.404;8.248;2023-08-06T11:37:07;0.70;;;0.50;;
30147;SDS011;16960;49.404;8.248;2023-08-06T11:39:35;0.53;;;0.40;;
30147;SDS011;16960;49.404;8.248;2023-08-06T11:42:03;3.00;;;0.50;;
30147;SDS011;16960;49.404;8.248;2023-08-06T11:44:32;0.40;;;0.30;;
30147;SDS011;16960;49.404;8.248;2023-08-06T11:47:01;0.67;;;0.60;;
30147;SDS011;16960;49.404;8.248;2023-08-06T11:49:39;1.30;;;0.50;;
30147;SDS011;16960;49.404;8.248;2023-08-06T11:52:10;0.50;;;0.40;;
30147;SDS011;16960;49.404;8.248;2023-08-06T11:54:39;0.50;;;0.40;;
30147;SDS011;16960;49.404;8.248;2023-08-06T11:57:06;0.40;;;0.30;;
30147;SDS011;16960;49.404;8.248;2023-08-06T11:59:33;0.57;;;0.47;;
30147;SDS011;16960;49.404;8.248;2023-08-06T12:02:01;0.70;;;0.33;;
30147;SDS011;16960;49.404;8.248;2023-08-06T12:04:30;0.60;;;0.60;;
30147;SDS011;16960;49.404;8.248;2023-08-06T12:07:05;1.90;;;0.33;;
30147;SDS011;16960;49.404;8.248;2023-08-06T12:09:33;1.10;;;0.70;;
30147;SDS011;16960;49.404;8.248;2023-08-06T12:12:01;1.00;;;0.70;;
30147;SDS011;16960;49.404;8.248;2023-08-06T12:14:29;0.60;;;0.60;;
30147;SDS011;16960;49.404;8.248;2023-08-06T12:16:56;1.53;;;0.77;;
30147;SDS011;16960;49.404;8.248;2023-08-06T12:19:23;1.80;;;0.60;;
30147;SDS011;16960;49.404;8.248;2023-08-06T12:21:51;0.70;;;0.40;;
30147;SDS011;16960;49.404;8.248;2023-08-06T12:24:19;0.67;;;0.50;;
30147;SDS011;16960;49.404;8.248;2023-08-06T12:26:46;1.00;;;0.60;;
30147;SDS011;16960;49.404;8.248;2023-08-06T12:29:13;0.73;;;0.60;;
30147;SDS011;16960;49.404;8.248;2023-08-06T12:31:40;0.80;;;0.60;;
30147;SDS011;16960;49.404;8.248;2023-08-06T12:34:07;0.80;;;0.50;;
30147;SDS011;16960;49.404;8.248;2023-08-06T12:36:34;0.93;;;0.40;;
30147;SDS011;16960;49.404;8.248;2023-08-06T12:39:00;0.60;;;0.60;;
30147;SDS011;16960;49.404;8.248;2023-08-06T12:41:29;0.73;;;0.50;;
30147;SDS011;16960;49.404;8.248;2023-08-06T12:43:56;1.07;;;0.60;;
30147;SDS011;16960;49.404;8.248;2023-08-06T12:46:23;0.73;;;0.60;;
30147;SDS011;16960;49.404;8.248;2023-08-06T12:48:49;1.00;;;0.50;;
30147;SDS011;16960;49.404;8.248;2023-08-06T12:51:17;0.60;;;0.40;;
30147;SDS011;16960;49.404;8.248;2023-08-06T12:53:44;1.20;;;0.37;;
30147;SDS011;16960;49.404;8.248;2023-08-06T12:56:11;0.70;;;0.50;;
30147;SDS011;16960;49.404;8.248;2023-08-06T12:58:39;0.70;;;0.40;;
30147;SDS011;16960;49.404;8.248;2023-08-06T13:01:07;1.10;;;0.50;;
30147;SDS011;16960;49.404;8.248;2023-08-06T13:03:33;0.50;;;0.40;;
30147;SDS011;16960;49.404;8.248;2023-08-06T13:06:00;0.97;;;0.77;;
30147;SDS011;16960;49.404;8.248;2023-08-06T13:08:27;0.70;;;0.50;;
30147;SDS011;16960;49.404;8.248;2023-08-06T13:10:54;0.73;;;0.50;;
30147;SDS011;16960;49.404;8.248;2023-08-06T13:13:21;0.77;;;0.50;;
30147;SDS011;16960;49.404;8.248;2023-08-06T13:15:51;0.60;;;0.30;;
30147;SDS011;16960;49.404;8.248;2023-08-06T13:18:18;1.50;;;0.60;;
30147;SDS011;16960;49.404;8.248;2023-08-06T13:20:45;1.43;;;0.50;;
30147;SDS011;16960;49.404;8.248;2023-08-06T13:23:14;1.00;;;0.50;;
30147;SDS011;16960;49.404;8.248;2023-08-06T13:25:42;1.03;;;0.60;;
30147;SDS011;16960;49.404;8.248;2023-08-06T13:28:09;0.70;;;0.47;;
30147;SDS011;16960;49.404;8.248;2023-08-06T13:30:35;0.50;;;0.40;;
30147;SDS011;16960;49.404;8.248;2023-08-06T13:33:08;0.70;;;0.50;;
30147;SDS011;16960;49.404;8.248;2023-08-06T13:35:35;0.80;;;0.40;;
30147;SDS011;16960;49.404;8.248;2023-08-06T13:38:02;0.87;;;0.33;;
30147;SDS011;16960;49.404;8.248;2023-08-06T13:40:29;0.87;;;0.63;;
30147;SDS011;16960;49.404;8.248;2023-08-06T13:42:58;0.80;;;0.60;;
30147;SDS011;16960;49.404;8.248;2023-08-06T13:45:26;3.70;;;0.90;;
30147;SDS011;16960;49.404;8.248;2023-08-06T13:47:53;1.23;;;0.50;;
30147;SDS011;16960;49.404;8.248;2023-08-06T13:50:22;0.37;;;0.30;;
30147;SDS011;16960;49.404;8.248;2023-08-06T13:52:50;0.60;;;0.40;;
30147;SDS011;16960;49.404;8.248;2023-08-06T13:55:20;0.60;;;0.40;;
30147;SDS011;16960;49.404;8.248;2023-08-06T13:57:47;0.50;;;0.40;;
30147;SDS011;16960;49.404;8.248;2023-08-06T14:00:15;3.10;;;0.50;;
30147;SDS011;16960;49.404;8.248;2023-08-06T14:02:41;0.80;;;0.40;;
30147;SDS011;16960;49.404;8.248;2023-08-06T14:05:10;0.73;;;0.30;;
30147;SDS011;16960;49.404;8.248;2023-08-06T14:07:38;0.60;;;0.40;;
30147;SDS011;16960;49.404;8.248;2023-08-06T14:10:05;0.47;;;0.47;;
30147;SDS011;16960;49.404;8.248;2023-08-06T14:12:34;1.37;;;0.77;;
30147;SDS011;16960;49.404;8.248;2023-08-06T14:15:01;1.33;;;0.50;;
30147;SDS011;16960;49.404;8.248;2023-08-06T14:17:29;0.90;;;0.33;;
30147;SDS011;16960;49.404;8.248;2023-08-06T14:19:56;0.90;;;0.60;;
30147;SDS011;16960;49.404;8.248;2023-08-06T14:22:23;0.77;;;0.40;;
30147;SDS011;16960;49.404;8.248;2023-08-06T14:24:51;0.60;;;0.43;;
30147;SDS011;16960;49.404;8.248;2023-08-06T14:27:18;0.50;;;0.43;;
30147;SDS011;16960;49.404;8.248;2023-08-06T14:29:45;0.93;;;0.60;;
30147;SDS011;16960;49.404;8.248;2023-08-06T14:32:12;0.90;;;0.57;;
30147;SDS011;16960;49.404;8.248;2023-08-06T14:34:39;1.27;;;0.50;;
30147;SDS011;16960;49.404;8.248;2023-08-06T14:37:06;0.70;;;0.40;;
30147;SDS011;16960;49.404;8.248;2023-08-06T14:39:33;1.70;;;0.57;;
30147;SDS011;16960;49.404;8.248;2023-08-06T14:42:02;1.00;;;0.50;;
30147;SDS011;16960;49.404;8.248;2023-08-06T14:44:30;1.33;;;0.47;;
30147;SDS011;16960;49.404;8.248;2023-08-06T14:46:57;0.40;;;0.30;;
30147;SDS011;16960;49.404;8.248;2023-08-06T14:49:24;0.70;;;0.40;;
30147;SDS011;16960;49.404;8.248;2023-08-06T14:51:51;0.60;;;0.50;;